sensor_id;sensor_type;location;lat;lon;timestamp;P1;durP1;ratioP1;P2;durP2;ratioP2
462;SDS011;218;51.902;9.542;2023-08-20T00:01:19;12.60;;;11.60;;
462;SDS011;218;51.902;9.542;2023-08-20T00:03:49;11.73;;;10.83;;
462;SDS011;218;51.902;9.542;2023-08-20T00:06:17;12.70;;;11.80;;
462;SDS011;218;51.902;9.542;2023-08-20T00:08:45;12.87;;;11.87;;
462;SDS011;218;51.902;9.542;2023-08-20T00:11:12;13.47;;;12.47;;
462;SDS011;218;51.902;9.542;2023-08-20T00:13:39;13.83;;;12.73;;
462;SDS011;218;51.902;9.542;2023-08-20T00:16:09;12.90;;;11.90;;
462;SDS011;218;51.902;9.542;2023-08-20T00:18:36;13.47;;;12.47;;
462;SDS011;218;51.902;9.542;2023-08-20T00:21:04;11.83;;;10.83;;
462;SDS011;218;51.902;9.542;2023-08-20T00:23:32;12.00;;;11.20;;
462;SDS011;218;51.902;9.542;2023-08-20T00:25:59;12.60;;;11.70;;
462;SDS011;218;51.902;9.542;2023-08-20T00:28:27;12.60;;;11.60;;
462;SDS011;218;51.902;9.542;2023-08-20T00:30:54;13.10;;;12.10;;
462;SDS011;218;51.902;9.542;2023-08-20T00:33:22;13.63;;;12.57;;
462;SDS011;218;51.902;9.542;2023-08-20T00:35:49;13.60;;;12.60;;
462;SDS011;218;51.902;9.542;2023-08-20T00:38:16;13.13;;;12.03;;
462;SDS011;218;51.902;9.542;2023-08-20T00:40:43;14.50;;;13.30;;
462;SDS011;218;51.902;9.542;2023-08-20T00:43:10;13.10;;;12.10;;
462;SDS011;218;51.902;9.542;2023-08-20T00:45:36;14.67;;;13.63;;
462;SDS011;218;51.902;9.542;2023-08-20T00:48:04;13.43;;;12.40;;
462;SDS011;218;51.902;9.542;2023-08-20T00:50:33;14.47;;;13.37;;
462;SDS011;218;51.902;9.542;2023-08-20T00:53:00;14.97;;;13.60;;
462;SDS011;218;51.902;9.542;2023-08-20T00:55:27;15.00;;;13.80;;
462;SDS011;218;51.902;9.542;2023-08-20T00:57:54;13.70;;;12.60;;
462;SDS011;218;51.902;9.542;2023-08-20T01:00:22;14.13;;;12.90;;
462;SDS011;218;51.902;9.542;2023-08-20T01:02:50;13.90;;;12.77;;
462;SDS011;218;51.902;9.542;2023-08-20T01:05:17;14.70;;;13.60;;
462;SDS011;218;51.902;9.542;2023-08-20T01:07:57;13.60;;;12.60;;
462;SDS011;218;51.902;9.542;2023-08-20T01:10:33;16.00;;;14.50;;
462;SDS011;218;51.902;9.542;2023-08-20T01:13:06;15.47;;;14.27;;
462;SDS011;218;51.902;9.542;2023-08-20T01:15:33;14.90;;;13.70;;
462;SDS011;218;51.902;9.542;2023-08-20T01:18:01;14.60;;;13.30;;
462;SDS011;218;51.902;9.542;2023-08-20T01:20:29;14.80;;;13.60;;
462;SDS011;218;51.902;9.542;2023-08-20T01:26:13;14.67;;;13.47;;
462;SDS011;218;51.902;9.542;2023-08-20T01:28:53;14.37;;;13.27;;
462;SDS011;218;51.902;9.542;2023-08-20T01:31:21;13.50;;;12.40;;
462;SDS011;218;51.902;9.542;2023-08-20T01:33:50;15.77;;;14.20;;
462;SDS011;218;51.902;9.542;2023-08-20T01:36:17;14.23;;;13.07;;
462;SDS011;218;51.902;9.542;2023-08-20T01:38:44;13.60;;;12.40;;
462;SDS011;218;51.902;9.542;2023-08-20T01:41:11;13.67;;;12.37;;
462;SDS011;218;51.902;9.542;2023-08-20T01:43:38;14.37;;;12.97;;
462;SDS011;218;51.902;9.542;2023-08-20T01:46:06;14.27;;;13.07;;
462;SDS011;218;51.902;9.542;2023-08-20T01:48:34;15.30;;;14.17;;
462;SDS011;218;51.902;9.542;2023-08-20T01:51:01;12.63;;;11.70;;
462;SDS011;218;51.902;9.542;2023-08-20T01:53:28;15.60;;;14.20;;
462;SDS011;218;51.902;9.542;2023-08-20T01:55:55;15.47;;;14.10;;
462;SDS011;218;51.902;9.542;2023-08-20T01:58:22;14.50;;;13.10;;
462;SDS011;218;51.902;9.542;2023-08-20T02:00:50;15.10;;;13.80;;
462;SDS011;218;51.902;9.542;2023-08-20T02:03:18;14.53;;;13.30;;
462;SDS011;218;51.902;9.542;2023-08-20T02:05:45;14.00;;;13.00;;
462;SDS011;218;51.902;9.542;2023-08-20T02:08:12;12.73;;;11.83;;
462;SDS011;218;51.902;9.542;2023-08-20T02:10:39;11.77;;;10.80;;
462;SDS011;218;51.902;9.542;2023-08-20T02:13:06;12.13;;;11.20;;
462;SDS011;218;51.902;9.542;2023-08-20T02:15:33;12.20;;;11.30;;
462;SDS011;218;51.902;9.542;2023-08-20T02:18:00;12.40;;;11.60;;
462;SDS011;218;51.902;9.542;2023-08-20T02:20:29;12.20;;;11.10;;
462;SDS011;218;51.902;9.542;2023-08-20T02:22:55;10.90;;;10.10;;
462;SDS011;218;51.902;9.542;2023-08-20T02:25:23;10.77;;;9.90;;
462;SDS011;218;51.902;9.542;2023-08-20T02:27:49;10.37;;;9.73;;
462;SDS011;218;51.902;9.542;2023-08-20T02:30:16;10.40;;;9.60;;
462;SDS011;218;51.902;9.542;2023-08-20T02:32:43;10.93;;;10.13;;
462;SDS011;218;51.902;9.542;2023-08-20T02:35:10;11.60;;;10.70;;
462;SDS011;218;51.902;9.542;2023-08-20T02:37:39;11.90;;;11.00;;
462;SDS011;218;51.902;9.542;2023-08-20T02:40:07;11.47;;;10.60;;
462;SDS011;218;51.902;9.542;2023-08-20T02:42:35;11.27;;;10.17;;
462;SDS011;218;51.902;9.542;2023-08-20T02:45:02;11.70;;;10.60;;
462;SDS011;218;51.902;9.542;2023-08-20T02:47:29;11.27;;;10.47;;
462;SDS011;218;51.902;9.542;2023-08-20T02:49:56;11.20;;;10.30;;
462;SDS011;218;51.902;9.542;2023-08-20T02:52:23;10.93;;;10.13;;
462;SDS011;218;51.902;9.542;2023-08-20T02:54:51;11.10;;;10.20;;
462;SDS011;218;51.902;9.542;2023-08-20T02:57:18;11.63;;;10.73;;
462;SDS011;218;51.902;9.542;2023-08-20T02:59:46;11.00;;;10.20;;
462;SDS011;218;51.902;9.542;2023-08-20T03:02:12;11.33;;;10.47;;
462;SDS011;218;51.902;9.542;2023-08-20T03:04:39;10.80;;;10.00;;
462;SDS011;218;51.902;9.542;2023-08-20T03:07:09;12.73;;;11.83;;
462;SDS011;218;51.902;9.542;2023-08-20T03:09:36;12.70;;;11.80;;
462;SDS011;218;51.902;9.542;2023-08-20T03:12:04;11.57;;;10.77;;
462;SDS011;218;51.902;9.542;2023-08-20T03:14:31;11.70;;;10.80;;
462;SDS011;218;51.902;9.542;2023-08-20T03:16:58;13.70;;;12.60;;
462;SDS011;218;51.902;9.542;2023-08-20T03:19:25;12.53;;;11.40;;
462;SDS011;218;51.902;9.542;2023-08-20T03:21:52;13.10;;;12.00;;
462;SDS011;218;51.902;9.542;2023-08-20T03:24:19;12.97;;;11.97;;
462;SDS011;218;51.902;9.542;2023-08-20T03:26:46;13.27;;;12.07;;
462;SDS011;218;51.902;9.542;2023-08-20T03:29:14;12.83;;;11.80;;
462;SDS011;218;51.902;9.542;2023-08-20T03:31:41;11.73;;;10.93;;
462;SDS011;218;51.902;9.542;2023-08-20T03:34:08;13.53;;;12.37;;
462;SDS011;218;51.902;9.542;2023-08-20T03:36:35;14.93;;;13.47;;
462;SDS011;218;51.902;9.542;2023-08-20T03:39:02;12.60;;;11.40;;
462;SDS011;218;51.902;9.542;2023-08-20T03:41:29;12.97;;;11.83;;
462;SDS011;218;51.902;9.542;2023-08-20T03:43:56;12.03;;;11.03;;
462;SDS011;218;51.902;9.542;2023-08-20T03:46:24;13.07;;;11.80;;
462;SDS011;218;51.902;9.542;2023-08-20T03:48:51;12.37;;;11.33;;
462;SDS011;218;51.902;9.542;2023-08-20T03:51:18;12.77;;;11.77;;
462;SDS011;218;51.902;9.542;2023-08-20T03:53:45;12.27;;;11.17;;
462;SDS011;218;51.902;9.542;2023-08-20T03:56:12;12.23;;;11.13;;
462;SDS011;218;51.902;9.542;2023-08-20T03:58:39;12.10;;;11.10;;
462;SDS011;218;51.902;9.542;2023-08-20T04:01:06;12.00;;;11.17;;
462;SDS011;218;51.902;9.542;2023-08-20T04:03:34;10.80;;;9.90;;
462;SDS011;218;51.902;9.542;2023-08-20T04:06:01;10.60;;;9.80;;
462;SDS011;218;51.902;9.542;2023-08-20T04:08:28;12.00;;;11.10;;
462;SDS011;218;51.902;9.542;2023-08-20T04:10:58;11.63;;;10.73;;
462;SDS011;218;51.902;9.542;2023-08-20T04:13:26;12.50;;;11.50;;
462;SDS011;218;51.902;9.542;2023-08-20T04:15:53;10.83;;;10.03;;
462;SDS011;218;51.902;9.542;2023-08-20T04:18:20;10.50;;;9.60;;
462;SDS011;218;51.902;9.542;2023-08-20T04:20:49;10.60;;;9.70;;
462;SDS011;218;51.902;9.542;2023-08-20T04:23:17;12.00;;;11.00;;
462;SDS011;218;51.902;9.542;2023-08-20T04:25:44;10.47;;;9.67;;
462;SDS011;218;51.902;9.542;2023-08-20T04:28:11;10.00;;;9.13;;
462;SDS011;218;51.902;9.542;2023-08-20T04:30:38;10.63;;;9.83;;
462;SDS011;218;51.902;9.542;2023-08-20T04:33:05;11.07;;;10.17;;
462;SDS011;218;51.902;9.542;2023-08-20T04:35:33;10.43;;;9.73;;
462;SDS011;218;51.902;9.542;2023-08-20T04:38:01;10.30;;;9.50;;
462;SDS011;218;51.902;9.542;2023-08-20T04:40:28;7.47;;;6.87;;
462;SDS011;218;51.902;9.542;2023-08-20T04:42:55;8.07;;;7.20;;
462;SDS011;218;51.902;9.542;2023-08-20T04:45:23;7.37;;;6.67;;
462;SDS011;218;51.902;9.542;2023-08-20T04:47:49;7.20;;;6.67;;
462;SDS011;218;51.902;9.542;2023-08-20T04:50:16;6.30;;;5.80;;
462;SDS011;218;51.902;9.542;2023-08-20T04:52:43;6.70;;;6.20;;
462;SDS011;218;51.902;9.542;2023-08-20T04:55:12;6.13;;;5.50;;
462;SDS011;218;51.902;9.542;2023-08-20T04:57:40;6.73;;;6.03;;
462;SDS011;218;51.902;9.542;2023-08-20T05:00:07;5.30;;;4.80;;
462;SDS011;218;51.902;9.542;2023-08-20T05:02:35;6.10;;;5.60;;
462;SDS011;218;51.902;9.542;2023-08-20T05:05:02;4.80;;;4.50;;
462;SDS011;218;51.902;9.542;2023-08-20T05:07:30;6.07;;;5.50;;
462;SDS011;218;51.902;9.542;2023-08-20T05:09:57;5.37;;;5.00;;
462;SDS011;218;51.902;9.542;2023-08-20T05:12:25;6.80;;;5.00;;
462;SDS011;218;51.902;9.542;2023-08-20T05:14:52;5.73;;;5.00;;
462;SDS011;218;51.902;9.542;2023-08-20T05:17:19;6.20;;;5.60;;
462;SDS011;218;51.902;9.542;2023-08-20T05:19:46;6.23;;;5.63;;
462;SDS011;218;51.902;9.542;2023-08-20T05:22:12;6.30;;;5.70;;
462;SDS011;218;51.902;9.542;2023-08-20T05:24:39;6.23;;;5.73;;
462;SDS011;218;51.902;9.542;2023-08-20T05:27:07;7.03;;;6.27;;
462;SDS011;218;51.902;9.542;2023-08-20T05:29:36;7.03;;;6.53;;
462;SDS011;218;51.902;9.542;2023-08-20T05:32:04;7.70;;;7.00;;
462;SDS011;218;51.902;9.542;2023-08-20T05:34:31;6.60;;;6.10;;
462;SDS011;218;51.902;9.542;2023-08-20T05:36:58;6.87;;;6.37;;
462;SDS011;218;51.902;9.542;2023-08-20T05:39:26;8.80;;;7.60;;
462;SDS011;218;51.902;9.542;2023-08-20T05:41:53;7.77;;;7.07;;
462;SDS011;218;51.902;9.542;2023-08-20T05:44:20;7.57;;;7.07;;
462;SDS011;218;51.902;9.542;2023-08-20T05:46:48;7.93;;;7.30;;
462;SDS011;218;51.902;9.542;2023-08-20T05:49:15;7.47;;;6.73;;
462;SDS011;218;51.902;9.542;2023-08-20T05:51:42;8.20;;;7.40;;
462;SDS011;218;51.902;9.542;2023-08-20T05:54:09;6.53;;;5.93;;
462;SDS011;218;51.902;9.542;2023-08-20T05:56:36;7.60;;;6.90;;
462;SDS011;218;51.902;9.542;2023-08-20T05:59:03;9.07;;;6.27;;
462;SDS011;218;51.902;9.542;2023-08-20T06:01:30;6.50;;;5.97;;
462;SDS011;218;51.902;9.542;2023-08-20T06:03:59;6.30;;;5.80;;
462;SDS011;218;51.902;9.542;2023-08-20T06:06:26;6.73;;;6.23;;
462;SDS011;218;51.902;9.542;2023-08-20T06:08:54;7.93;;;7.33;;
462;SDS011;218;51.902;9.542;2023-08-20T06:11:21;7.63;;;7.03;;
462;SDS011;218;51.902;9.542;2023-08-20T06:13:47;6.27;;;5.77;;
462;SDS011;218;51.902;9.542;2023-08-20T06:16:14;7.67;;;7.07;;
462;SDS011;218;51.902;9.542;2023-08-20T06:18:41;9.90;;;6.00;;
462;SDS011;218;51.902;9.542;2023-08-20T06:21:09;7.60;;;6.90;;
462;SDS011;218;51.902;9.542;2023-08-20T06:23:38;7.43;;;6.83;;
462;SDS011;218;51.902;9.542;2023-08-20T06:26:05;7.40;;;6.70;;
462;SDS011;218;51.902;9.542;2023-08-20T06:28:31;7.63;;;7.03;;
462;SDS011;218;51.902;9.542;2023-08-20T06:30:58;6.80;;;6.20;;
462;SDS011;218;51.902;9.542;2023-08-20T06:33:25;7.53;;;6.40;;
462;SDS011;218;51.902;9.542;2023-08-20T06:35:52;8.23;;;7.50;;
462;SDS011;218;51.902;9.542;2023-08-20T06:38:20;6.97;;;6.37;;
462;SDS011;218;51.902;9.542;2023-08-20T06:40:47;7.20;;;6.70;;
462;SDS011;218;51.902;9.542;2023-08-20T06:43:16;6.37;;;5.90;;
462;SDS011;218;51.902;9.542;2023-08-20T06:45:43;6.53;;;5.40;;
462;SDS011;218;51.902;9.542;2023-08-20T06:48:10;5.80;;;5.37;;
462;SDS011;218;51.902;9.542;2023-08-20T06:50:37;5.73;;;5.33;;
462;SDS011;218;51.902;9.542;2023-08-20T06:53:04;5.60;;;5.10;;
462;SDS011;218;51.902;9.542;2023-08-20T06:55:32;5.97;;;5.37;;
462;SDS011;218;51.902;9.542;2023-08-20T06:58:00;5.40;;;4.90;;
462;SDS011;218;51.902;9.542;2023-08-20T07:00:26;5.60;;;5.20;;
462;SDS011;218;51.902;9.542;2023-08-20T07:02:53;7.43;;;4.93;;
462;SDS011;218;51.902;9.542;2023-08-20T07:05:20;6.33;;;5.83;;
462;SDS011;218;51.902;9.542;2023-08-20T07:07:47;5.00;;;4.60;;
462;SDS011;218;51.902;9.542;2023-08-20T07:10:14;6.67;;;5.20;;
462;SDS011;218;51.902;9.542;2023-08-20T07:12:42;4.50;;;4.10;;
462;SDS011;218;51.902;9.542;2023-08-20T07:15:12;5.67;;;5.17;;
462;SDS011;218;51.902;9.542;2023-08-20T07:17:39;7.40;;;4.87;;
462;SDS011;218;51.902;9.542;2023-08-20T07:20:06;4.80;;;4.30;;
462;SDS011;218;51.902;9.542;2023-08-20T07:22:34;5.23;;;4.73;;
462;SDS011;218;51.902;9.542;2023-08-20T07:25:01;4.40;;;4.10;;
462;SDS011;218;51.902;9.542;2023-08-20T07:27:28;4.20;;;3.90;;
462;SDS011;218;51.902;9.542;2023-08-20T07:29:56;6.37;;;4.80;;
462;SDS011;218;51.902;9.542;2023-08-20T07:32:23;6.70;;;5.23;;
462;SDS011;218;51.902;9.542;2023-08-20T07:34:50;5.43;;;4.63;;
462;SDS011;218;51.902;9.542;2023-08-20T07:37:17;8.53;;;5.57;;
462;SDS011;218;51.902;9.542;2023-08-20T07:39:43;5.17;;;4.87;;
462;SDS011;218;51.902;9.542;2023-08-20T07:42:10;4.37;;;4.07;;
462;SDS011;218;51.902;9.542;2023-08-20T07:44:37;5.27;;;4.77;;
462;SDS011;218;51.902;9.542;2023-08-20T07:47:06;5.50;;;5.10;;
462;SDS011;218;51.902;9.542;2023-08-20T07:49:33;5.20;;;4.57;;
462;SDS011;218;51.902;9.542;2023-08-20T07:51:59;4.73;;;4.33;;
462;SDS011;218;51.902;9.542;2023-08-20T07:54:27;5.80;;;5.30;;
462;SDS011;218;51.902;9.542;2023-08-20T07:56:54;6.27;;;5.30;;
462;SDS011;218;51.902;9.542;2023-08-20T07:59:21;5.40;;;4.90;;
462;SDS011;218;51.902;9.542;2023-08-20T08:01:48;5.50;;;5.10;;
462;SDS011;218;51.902;9.542;2023-08-20T08:04:16;9.00;;;4.77;;
462;SDS011;218;51.902;9.542;2023-08-20T08:06:43;5.63;;;5.13;;
462;SDS011;218;51.902;9.542;2023-08-20T08:09:19;5.63;;;5.07;;
462;SDS011;218;51.902;9.542;2023-08-20T08:11:47;5.87;;;5.37;;
462;SDS011;218;51.902;9.542;2023-08-20T08:14:15;5.90;;;5.30;;
462;SDS011;218;51.902;9.542;2023-08-20T08:16:42;5.90;;;5.40;;
462;SDS011;218;51.902;9.542;2023-08-20T08:19:08;5.70;;;5.10;;
462;SDS011;218;51.902;9.542;2023-08-20T08:21:37;6.13;;;5.63;;
462;SDS011;218;51.902;9.542;2023-08-20T08:24:05;5.97;;;5.47;;
462;SDS011;218;51.902;9.542;2023-08-20T08:26:33;5.67;;;5.27;;
462;SDS011;218;51.902;9.542;2023-08-20T08:29:00;6.10;;;5.60;;
462;SDS011;218;51.902;9.542;2023-08-20T08:31:27;6.60;;;6.10;;
462;SDS011;218;51.902;9.542;2023-08-20T08:33:54;6.40;;;5.80;;
462;SDS011;218;51.902;9.542;2023-08-20T08:36:21;6.97;;;5.47;;
462;SDS011;218;51.902;9.542;2023-08-20T08:38:51;6.10;;;5.60;;
462;SDS011;218;51.902;9.542;2023-08-20T08:41:19;8.40;;;6.50;;
462;SDS011;218;51.902;9.542;2023-08-20T08:43:48;5.93;;;5.50;;
462;SDS011;218;51.902;9.542;2023-08-20T08:46:15;6.10;;;5.67;;
462;SDS011;218;51.902;9.542;2023-08-20T08:48:43;5.80;;;5.40;;
462;SDS011;218;51.902;9.542;2023-08-20T08:51:11;5.83;;;5.47;;
462;SDS011;218;51.902;9.542;2023-08-20T08:53:38;5.80;;;5.30;;
462;SDS011;218;51.902;9.542;2023-08-20T08:56:09;6.37;;;5.77;;
462;SDS011;218;51.902;9.542;2023-08-20T08:58:36;7.60;;;6.90;;
462;SDS011;218;51.902;9.542;2023-08-20T09:01:03;7.37;;;6.63;;
462;SDS011;218;51.902;9.542;2023-08-20T09:03:30;8.43;;;5.53;;
462;SDS011;218;51.902;9.542;2023-08-20T09:05:57;8.83;;;8.13;;
462;SDS011;218;51.902;9.542;2023-08-20T09:08:28;9.20;;;8.47;;
462;SDS011;218;51.902;9.542;2023-08-20T09:10:56;8.17;;;7.50;;
462;SDS011;218;51.902;9.542;2023-08-20T09:13:26;8.60;;;7.90;;
462;SDS011;218;51.902;9.542;2023-08-20T09:15:59;7.83;;;7.13;;
462;SDS011;218;51.902;9.542;2023-08-20T09:18:30;8.63;;;8.00;;
462;SDS011;218;51.902;9.542;2023-08-20T09:20:57;8.90;;;8.30;;
462;SDS011;218;51.902;9.542;2023-08-20T09:23:26;9.90;;;9.07;;
462;SDS011;218;51.902;9.542;2023-08-20T09:25:55;9.80;;;9.00;;
462;SDS011;218;51.902;9.542;2023-08-20T09:28:22;9.00;;;8.30;;
462;SDS011;218;51.902;9.542;2023-08-20T09:30:57;9.63;;;8.40;;
462;SDS011;218;51.902;9.542;2023-08-20T09:33:26;9.00;;;8.40;;
462;SDS011;218;51.902;9.542;2023-08-20T09:35:53;8.00;;;7.40;;
462;SDS011;218;51.902;9.542;2023-08-20T09:38:21;8.80;;;8.00;;
462;SDS011;218;51.902;9.542;2023-08-20T09:40:49;8.83;;;7.83;;
462;SDS011;218;51.902;9.542;2023-08-20T09:43:17;8.50;;;7.73;;
462;SDS011;218;51.902;9.542;2023-08-20T09:45:46;8.47;;;7.77;;
462;SDS011;218;51.902;9.542;2023-08-20T09:48:15;8.20;;;7.60;;
462;SDS011;218;51.902;9.542;2023-08-20T09:50:46;8.23;;;7.63;;
462;SDS011;218;51.902;9.542;2023-08-20T09:53:17;9.10;;;8.20;;
462;SDS011;218;51.902;9.542;2023-08-20T09:55:49;7.97;;;7.30;;
462;SDS011;218;51.902;9.542;2023-08-20T09:58:18;9.07;;;8.30;;
462;SDS011;218;51.902;9.542;2023-08-20T10:00:50;8.50;;;7.90;;
462;SDS011;218;51.902;9.542;2023-08-20T10:03:19;8.40;;;7.90;;
462;SDS011;218;51.902;9.542;2023-08-20T10:05:48;9.03;;;8.20;;
462;SDS011;218;51.902;9.542;2023-08-20T10:08:15;8.27;;;7.67;;
462;SDS011;218;51.902;9.542;2023-08-20T10:10:43;8.67;;;8.07;;
462;SDS011;218;51.902;9.542;2023-08-20T10:13:11;9.67;;;8.97;;
462;SDS011;218;51.902;9.542;2023-08-20T10:15:39;8.40;;;7.90;;
462;SDS011;218;51.902;9.542;2023-08-20T10:18:07;9.13;;;8.30;;
462;SDS011;218;51.902;9.542;2023-08-20T10:20:36;9.50;;;8.70;;
462;SDS011;218;51.902;9.542;2023-08-20T10:23:05;9.00;;;8.40;;
462;SDS011;218;51.902;9.542;2023-08-20T10:25:32;9.90;;;9.10;;
462;SDS011;218;51.902;9.542;2023-08-20T10:28:13;8.47;;;7.77;;
462;SDS011;218;51.902;9.542;2023-08-20T10:31:03;9.73;;;8.93;;
462;SDS011;218;51.902;9.542;2023-08-20T10:33:31;14.17;;;8.80;;
462;SDS011;218;51.902;9.542;2023-08-20T10:36:07;9.90;;;9.20;;
462;SDS011;218;51.902;9.542;2023-08-20T10:38:41;9.13;;;8.50;;
462;SDS011;218;51.902;9.542;2023-08-20T10:41:08;10.10;;;9.30;;
462;SDS011;218;51.902;9.542;2023-08-20T10:43:37;8.27;;;7.77;;
462;SDS011;218;51.902;9.542;2023-08-20T10:46:05;10.53;;;9.63;;
462;SDS011;218;51.902;9.542;2023-08-20T10:48:33;9.73;;;9.03;;
462;SDS011;218;51.902;9.542;2023-08-20T10:51:12;11.23;;;10.33;;
462;SDS011;218;51.902;9.542;2023-08-20T10:53:41;9.30;;;8.63;;
462;SDS011;218;51.902;9.542;2023-08-20T10:56:09;9.00;;;8.37;;
462;SDS011;218;51.902;9.542;2023-08-20T10:58:38;9.20;;;8.57;;
462;SDS011;218;51.902;9.542;2023-08-20T11:01:18;9.20;;;8.50;;
462;SDS011;218;51.902;9.542;2023-08-20T11:03:47;8.93;;;8.23;;
462;SDS011;218;51.902;9.542;2023-08-20T11:06:17;8.67;;;8.07;;
462;SDS011;218;51.902;9.542;2023-08-20T11:08:44;8.67;;;8.07;;
462;SDS011;218;51.902;9.542;2023-08-20T11:11:12;8.13;;;7.63;;
462;SDS011;218;51.902;9.542;2023-08-20T11:13:39;8.73;;;8.13;;
462;SDS011;218;51.902;9.542;2023-08-20T11:16:08;10.20;;;9.50;;
462;SDS011;218;51.902;9.542;2023-08-20T11:18:35;8.83;;;8.13;;
462;SDS011;218;51.902;9.542;2023-08-20T11:21:02;8.50;;;7.80;;
462;SDS011;218;51.902;9.542;2023-08-20T11:23:31;9.60;;;8.80;;
462;SDS011;218;51.902;9.542;2023-08-20T11:25:58;10.60;;;9.80;;
462;SDS011;218;51.902;9.542;2023-08-20T11:28:26;9.60;;;8.90;;
462;SDS011;218;51.902;9.542;2023-08-20T11:30:53;9.10;;;8.50;;
462;SDS011;218;51.902;9.542;2023-08-20T11:33:25;9.03;;;8.43;;
462;SDS011;218;51.902;9.542;2023-08-20T11:35:52;9.67;;;8.97;;
462;SDS011;218;51.902;9.542;2023-08-20T11:38:20;12.83;;;9.43;;
462;SDS011;218;51.902;9.542;2023-08-20T11:40:50;10.93;;;9.93;;
462;SDS011;218;51.902;9.542;2023-08-20T11:43:17;10.00;;;9.20;;
462;SDS011;218;51.902;9.542;2023-08-20T11:45:45;9.67;;;8.97;;
462;SDS011;218;51.902;9.542;2023-08-20T11:48:13;8.77;;;8.17;;
462;SDS011;218;51.902;9.542;2023-08-20T11:50:40;9.93;;;9.20;;
462;SDS011;218;51.902;9.542;2023-08-20T11:53:08;9.50;;;8.90;;
462;SDS011;218;51.902;9.542;2023-08-20T11:55:35;11.43;;;10.50;;
462;SDS011;218;51.902;9.542;2023-08-20T11:58:05;10.40;;;9.60;;
462;SDS011;218;51.902;9.542;2023-08-20T12:00:32;9.10;;;8.30;;
462;SDS011;218;51.902;9.542;2023-08-20T12:02:59;10.00;;;9.30;;
462;SDS011;218;51.902;9.542;2023-08-20T12:05:29;8.23;;;7.63;;
462;SDS011;218;51.902;9.542;2023-08-20T12:07:56;10.40;;;9.20;;
462;SDS011;218;51.902;9.542;2023-08-20T12:10:25;9.47;;;8.87;;
462;SDS011;218;51.902;9.542;2023-08-20T12:12:53;10.17;;;9.37;;
462;SDS011;218;51.902;9.542;2023-08-20T12:15:23;9.57;;;8.97;;
462;SDS011;218;51.902;9.542;2023-08-20T12:17:58;10.00;;;9.30;;
462;SDS011;218;51.902;9.542;2023-08-20T12:20:27;10.50;;;9.70;;
462;SDS011;218;51.902;9.542;2023-08-20T12:22:57;10.20;;;9.40;;
462;SDS011;218;51.902;9.542;2023-08-20T12:25:26;9.73;;;9.13;;
462;SDS011;218;51.902;9.542;2023-08-20T12:27:53;9.57;;;8.97;;
462;SDS011;218;51.902;9.542;2023-08-20T12:30:20;9.50;;;8.90;;
462;SDS011;218;51.902;9.542;2023-08-20T12:32:48;9.50;;;8.70;;
462;SDS011;218;51.902;9.542;2023-08-20T12:35:15;8.70;;;8.00;;
462;SDS011;218;51.902;9.542;2023-08-20T12:37:42;9.47;;;8.77;;
462;SDS011;218;51.902;9.542;2023-08-20T12:40:09;8.93;;;8.33;;
462;SDS011;218;51.902;9.542;2023-08-20T12:42:37;8.70;;;8.10;;
462;SDS011;218;51.902;9.542;2023-08-20T12:45:05;7.77;;;7.30;;
462;SDS011;218;51.902;9.542;2023-08-20T12:47:32;7.93;;;7.43;;
462;SDS011;218;51.902;9.542;2023-08-20T12:50:02;7.83;;;7.30;;
462;SDS011;218;51.902;9.542;2023-08-20T12:52:30;9.63;;;8.83;;
462;SDS011;218;51.902;9.542;2023-08-20T12:54:57;8.73;;;7.93;;
462;SDS011;218;51.902;9.542;2023-08-20T12:57:24;8.50;;;7.93;;
462;SDS011;218;51.902;9.542;2023-08-20T12:59:51;8.20;;;7.40;;
462;SDS011;218;51.902;9.542;2023-08-20T13:02:18;10.83;;;7.73;;
462;SDS011;218;51.902;9.542;2023-08-20T13:04:45;8.60;;;8.00;;
462;SDS011;218;51.902;9.542;2023-08-20T13:07:15;7.97;;;7.33;;
462;SDS011;218;51.902;9.542;2023-08-20T13:09:42;8.93;;;8.33;;
462;SDS011;218;51.902;9.542;2023-08-20T13:12:10;8.90;;;8.27;;
462;SDS011;218;51.902;9.542;2023-08-20T13:14:38;9.03;;;8.43;;
462;SDS011;218;51.902;9.542;2023-08-20T13:17:07;8.70;;;8.10;;
462;SDS011;218;51.902;9.542;2023-08-20T13:19:35;8.37;;;7.77;;
462;SDS011;218;51.902;9.542;2023-08-20T13:22:02;8.77;;;8.07;;
462;SDS011;218;51.902;9.542;2023-08-20T13:24:30;9.97;;;9.00;;
462;SDS011;218;51.902;9.542;2023-08-20T13:26:57;8.17;;;7.57;;
462;SDS011;218;51.902;9.542;2023-08-20T13:29:24;9.07;;;8.37;;
462;SDS011;218;51.902;9.542;2023-08-20T13:31:51;8.10;;;7.50;;
462;SDS011;218;51.902;9.542;2023-08-20T13:34:18;8.17;;;7.67;;
462;SDS011;218;51.902;9.542;2023-08-20T13:36:45;9.33;;;8.63;;
462;SDS011;218;51.902;9.542;2023-08-20T13:39:12;8.30;;;7.80;;
462;SDS011;218;51.902;9.542;2023-08-20T13:41:41;8.17;;;7.50;;
462;SDS011;218;51.902;9.542;2023-08-20T13:44:08;8.87;;;8.27;;
462;SDS011;218;51.902;9.542;2023-08-20T13:46:35;9.73;;;9.03;;
462;SDS011;218;51.902;9.542;2023-08-20T13:49:02;8.10;;;7.50;;
462;SDS011;218;51.902;9.542;2023-08-20T13:51:29;8.23;;;7.63;;
462;SDS011;218;51.902;9.542;2023-08-20T13:53:57;8.90;;;8.20;;
462;SDS011;218;51.902;9.542;2023-08-20T13:56:24;10.27;;;9.47;;
462;SDS011;218;51.902;9.542;2023-08-20T13:58:53;8.43;;;7.53;;
462;SDS011;218;51.902;9.542;2023-08-20T14:01:20;10.93;;;9.60;;
462;SDS011;218;51.902;9.542;2023-08-20T14:03:47;8.80;;;8.10;;
462;SDS011;218;51.902;9.542;2023-08-20T14:06:14;8.90;;;8.30;;
462;SDS011;218;51.902;9.542;2023-08-20T14:08:41;9.20;;;8.50;;
462;SDS011;218;51.902;9.542;2023-08-20T14:11:08;8.30;;;7.80;;
462;SDS011;218;51.902;9.542;2023-08-20T14:13:35;8.77;;;8.07;;
462;SDS011;218;51.902;9.542;2023-08-20T14:16:04;10.00;;;9.10;;
462;SDS011;218;51.902;9.542;2023-08-20T14:18:31;9.50;;;8.80;;
462;SDS011;218;51.902;9.542;2023-08-20T14:20:57;8.90;;;8.30;;
462;SDS011;218;51.902;9.542;2023-08-20T14:23:24;9.50;;;8.70;;
462;SDS011;218;51.902;9.542;2023-08-20T14:25:51;9.57;;;8.87;;
462;SDS011;218;51.902;9.542;2023-08-20T14:28:19;9.13;;;8.47;;
462;SDS011;218;51.902;9.542;2023-08-20T14:30:48;7.63;;;7.20;;
462;SDS011;218;51.902;9.542;2023-08-20T14:33:17;9.67;;;9.00;;
462;SDS011;218;51.902;9.542;2023-08-20T14:35:44;8.70;;;8.10;;
462;SDS011;218;51.902;9.542;2023-08-20T14:38:11;8.70;;;8.10;;
462;SDS011;218;51.902;9.542;2023-08-20T14:40:39;11.30;;;8.00;;
462;SDS011;218;51.902;9.542;2023-08-20T14:43:06;8.97;;;8.27;;
462;SDS011;218;51.902;9.542;2023-08-20T14:45:33;8.50;;;7.77;;
462;SDS011;218;51.902;9.542;2023-08-20T14:48:00;8.47;;;7.80;;
462;SDS011;218;51.902;9.542;2023-08-20T14:50:30;8.60;;;7.87;;
462;SDS011;218;51.902;9.542;2023-08-20T14:52:57;9.37;;;8.77;;
462;SDS011;218;51.902;9.542;2023-08-20T14:55:24;8.03;;;7.53;;
462;SDS011;218;51.902;9.542;2023-08-20T14:57:51;8.70;;;8.13;;
462;SDS011;218;51.902;9.542;2023-08-20T15:00:18;9.30;;;8.50;;
462;SDS011;218;51.902;9.542;2023-08-20T15:02:47;8.40;;;7.77;;
462;SDS011;218;51.902;9.542;2023-08-20T15:05:14;8.70;;;8.00;;
462;SDS011;218;51.902;9.542;2023-08-20T15:07:44;9.27;;;8.57;;
462;SDS011;218;51.902;9.542;2023-08-20T15:10:10;8.70;;;8.00;;
462;SDS011;218;51.902;9.542;2023-08-20T15:12:37;9.00;;;8.30;;
462;SDS011;218;51.902;9.542;2023-08-20T15:15:05;8.37;;;7.70;;
462;SDS011;218;51.902;9.542;2023-08-20T15:17:33;8.07;;;7.57;;
462;SDS011;218;51.902;9.542;2023-08-20T15:20:02;8.40;;;7.70;;
462;SDS011;218;51.902;9.542;2023-08-20T15:22:30;8.87;;;8.20;;
462;SDS011;218;51.902;9.542;2023-08-20T15:24:58;8.77;;;8.17;;
462;SDS011;218;51.902;9.542;2023-08-20T15:27:25;9.37;;;8.57;;
462;SDS011;218;51.902;9.542;2023-08-20T15:29:52;9.80;;;8.80;;
462;SDS011;218;51.902;9.542;2023-08-20T15:32:19;9.90;;;9.00;;
462;SDS011;218;51.902;9.542;2023-08-20T15:34:47;9.13;;;8.20;;
462;SDS011;218;51.902;9.542;2023-08-20T15:37:14;7.93;;;7.33;;
462;SDS011;218;51.902;9.542;2023-08-20T15:39:41;8.83;;;8.20;;
462;SDS011;218;51.902;9.542;2023-08-20T15:42:10;9.03;;;8.33;;